Time,TemperatureF,DewpointF,PressureIn,WindDirection,WindDirectionDegrees,WindSpeedMPH,WindSpeedGustMPH,Humidity,HourlyPrecipIn,Conditions,Clouds,dailyrainin,SoftwareType,DateUTC
2013-05-28 00:00:00,68.3,59.3,30.08,WNW,297,0.0,3.0,73,0.00,,,0.00,Wunderground v.1.13,2013-05-28 04:00:00,
2013-05-28 00:10:00,68.2,59.2,30.08,WNW,297,0.0,3.0,73,0.00,,,0.00,Wunderground v.1.13,2013-05-28 04:10:00,
2013-05-28 00:20:00,67.8,59.2,30.08,WNW,297,0.0,3.0,74,0.00,,,0.00,Wunderground v.1.13,2013-05-28 04:20:00,
2013-05-28 00:30:00,67.5,58.9,30.08,WNW,297,0.0,3.0,74,0.00,,,0.00,Wunderground v.1.13,2013-05-28 04:30:00,
2013-05-28 00:40:00,67.5,58.9,30.07,WNW,297,0.0,3.0,74,0.00,,,0.00,Wunderground v.1.13,2013-05-28 04:40:00,
2013-05-28 00:50:00,67.3,58.7,30.07,WNW,297,0.0,3.0,74,0.00,,,0.00,Wunderground v.1.13,2013-05-28 04:50:00,
2013-05-28 01:00:00,67.3,58.3,30.07,WNW,297,0.0,3.0,73,0.00,,,0.00,Wunderground v.1.13,2013-05-28 05:00:00,
2013-05-28 01:10:00,67.3,58.3,30.07,WNW,297,0.0,3.0,73,0.00,,,0.00,Wunderground v.1.13,2013-05-28 05:10:00,
2013-05-28 01:20:00,67.2,59.0,30.07,WNW,297,0.0,3.0,75,0.00,,,0.00,Wunderground v.1.13,2013-05-28 05:20:00,
2013-05-28 01:30:00,67.0,58.8,30.06,WNW,297,0.0,3.0,75,0.00,,,0.00,Wunderground v.1.13,2013-05-28 05:30:00,
2013-05-28 01:40:00,66.8,58.6,30.06,WNW,297,0.0,3.0,75,0.00,,,0.00,Wunderground v.1.13,2013-05-28 05:40:00,
2013-05-28 01:50:00,66.7,58.9,30.06,WNW,297,0.0,3.0,76,0.00,,,0.00,Wunderground v.1.13,2013-05-28 05:50:00,
2013-05-28 02:00:00,66.3,59.2,30.06,WNW,297,0.0,3.0,78,0.00,,,0.00,Wunderground v.1.13,2013-05-28 06:00:00,
2013-05-28 02:10:00,65.9,58.8,30.06,WNW,297,0.0,3.0,78,0.00,,,0.00,Wunderground v.1.13,2013-05-28 06:10:00,
2013-05-28 02:20:00,65.2,57.8,30.06,WNW,297,0.0,3.0,77,0.00,,,0.00,Wunderground v.1.13,2013-05-28 06:20:00,
2013-05-28 02:30:00,64.9,58.2,30.06,WNW,297,0.0,3.0,79,0.00,,,0.00,Wunderground v.1.13,2013-05-28 06:30:00,
2013-05-28 02:40:00,64.4,57.4,30.06,WNW,297,0.0,3.0,78,0.00,,,0.00,Wunderground v.1.13,2013-05-28 06:40:00,
2013-05-28 02:50:00,64.2,57.9,30.06,WNW,297,0.0,3.0,80,0.00,,,0.00,Wunderground v.1.13,2013-05-28 06:50:00,
2013-05-28 03:00:00,64.1,58.1,30.05,WNW,297,0.0,3.0,81,0.00,,,0.00,Wunderground v.1.13,2013-05-28 07:00:00,
2013-05-28 03:10:00,63.8,58.2,30.04,WNW,297,0.0,3.0,82,0.00,,,0.00,Wunderground v.1.13,2013-05-28 07:10:00,
2013-05-28 03:20:00,63.4,58.1,30.04,WNW,297,0.0,3.0,83,0.00,,,0.00,Wunderground v.1.13,2013-05-28 07:20:00,
2013-05-28 03:30:00,63.3,58.4,30.04,WNW,297,0.0,3.0,84,0.00,,,0.00,Wunderground v.1.13,2013-05-28 07:30:00,
2013-05-28 03:40:00,63.3,59.4,30.03,WNW,297,0.0,3.0,87,0.00,,,0.00,Wunderground v.1.13,2013-05-28 07:40:00,
2013-05-28 03:50:00,63.3,59.0,30.03,WNW,297,0.0,3.0,86,0.00,,,0.00,Wunderground v.1.13,2013-05-28 07:50:00,
2013-05-28 04:00:00,63.1,59.2,30.03,WNW,297,0.0,3.0,87,0.00,,,0.00,Wunderground v.1.13,2013-05-28 08:00:00,
2013-05-28 04:10:00,62.8,58.5,30.03,WNW,297,0.0,3.0,86,0.00,,,0.00,Wunderground v.1.13,2013-05-28 08:10:00,
2013-05-28 04:20:00,62.3,58.1,30.03,WNW,297,0.0,3.0,86,0.00,,,0.00,Wunderground v.1.13,2013-05-28 08:20:00,
2013-05-28 04:30:00,62.0,58.1,30.05,WNW,297,0.0,3.0,87,0.00,,,0.00,Wunderground v.1.13,2013-05-28 08:30:00,
2013-05-28 04:40:00,62.0,58.4,30.05,WNW,297,0.0,3.0,88,0.00,,,0.00,Wunderground v.1.13,2013-05-28 08:40:00,
2013-05-28 04:50:00,62.0,58.7,30.05,WNW,297,0.0,3.0,89,0.00,,,0.00,Wunderground v.1.13,2013-05-28 08:50:00,
2013-05-28 05:00:00,62.0,59.0,30.05,WNW,297,0.0,3.0,90,0.00,,,0.00,Wunderground v.1.13,2013-05-28 09:00:00,
2013-05-28 05:10:00,61.9,59.2,30.06,WNW,297,0.0,3.0,91,0.00,,,0.00,Wunderground v.1.13,2013-05-28 09:10:00,
2013-05-28 05:20:00,61.9,59.9,30.06,WNW,297,0.0,3.0,93,0.00,,,0.00,Wunderground v.1.13,2013-05-28 09:20:00,
2013-05-28 05:30:00,61.7,59.7,30.06,WNW,297,0.0,3.0,93,0.00,,,0.00,Wunderground v.1.13,2013-05-28 09:30:00,
2013-05-28 05:40:00,61.7,60.0,30.06,WNW,297,0.0,3.0,94,0.00,,,0.00,Wunderground v.1.13,2013-05-28 09:40:00,
2013-05-28 05:50:00,61.4,59.7,30.06,WNW,297,0.0,3.0,94,0.00,,,0.00,Wunderground v.1.13,2013-05-28 09:50:00,
2013-05-28 06:00:00,61.2,59.5,30.08,WNW,297,0.0,3.0,94,0.00,,,0.00,Wunderground v.1.13,2013-05-28 10:00:00,
2013-05-28 06:10:00,61.1,59.7,30.08,WNW,297,0.0,3.0,95,0.00,,,0.00,Wunderground v.1.13,2013-05-28 10:10:00,
2013-05-28 06:20:00,60.9,59.8,30.08,WNW,297,0.0,3.0,96,0.00,,,0.00,Wunderground v.1.13,2013-05-28 10:20:00,
2013-05-28 06:30:00,60.9,59.8,30.09,WNW,297,0.0,3.0,96,0.00,,,0.00,Wunderground v.1.13,2013-05-28 10:30:00,
2013-05-28 06:40:00,60.9,59.8,30.10,WNW,297,0.0,3.0,96,0.00,,,0.00,Wunderground v.1.13,2013-05-28 10:40:00,
2013-05-28 06:50:00,60.8,59.7,30.10,WNW,297,0.0,3.0,96,0.00,,,0.00,Wunderground v.1.13,2013-05-28 10:50:00,
2013-05-28 07:00:00,60.8,59.7,30.10,WNW,297,0.0,3.0,96,0.00,,,0.00,Wunderground v.1.13,2013-05-28 11:00:00,
2013-05-28 07:10:00,61.2,60.3,30.10,WNW,297,0.0,3.0,97,0.00,,,0.00,Wunderground v.1.13,2013-05-28 11:10:00,
2013-05-28 07:20:00,61.7,60.8,30.10,WNW,297,0.0,3.0,97,0.00,,,0.00,Wunderground v.1.13,2013-05-28 11:20:00,
2013-05-28 07:30:00,62.0,61.1,30.11,WNW,297,0.0,3.0,97,0.00,,,0.00,Wunderground v.1.13,2013-05-28 11:30:00,
2013-05-28 07:40:00,62.5,61.3,30.11,WNW,297,0.0,3.0,96,0.00,,,0.00,Wunderground v.1.13,2013-05-28 11:40:00,
2013-05-28 07:50:00,63.1,61.9,30.11,WNW,297,0.0,3.0,96,0.00,,,0.00,Wunderground v.1.13,2013-05-28 11:50:00,
2013-05-28 08:00:00,63.6,62.1,30.11,WNW,297,0.0,3.0,95,0.00,,,0.00,Wunderground v.1.13,2013-05-28 12:00:00,
2013-05-28 08:10:00,64.1,62.6,30.11,WNW,297,0.0,3.0,95,0.00,,,0.00,Wunderground v.1.13,2013-05-28 12:10:00,
2013-05-28 08:20:00,64.6,62.8,30.11,WNW,297,0.0,3.0,94,0.00,,,0.00,Wunderground v.1.13,2013-05-28 12:20:00,
2013-05-28 08:30:00,65.1,63.0,30.12,WNW,297,0.0,3.0,93,0.00,,,0.00,Wunderground v.1.13,2013-05-28 12:30:00,
2013-05-28 08:40:00,65.5,63.1,30.13,WNW,297,0.0,3.0,92,0.00,,,0.00,Wunderground v.1.13,2013-05-28 12:40:00,
2013-05-28 08:50:00,66.3,63.9,30.13,WNW,297,0.0,3.0,92,0.00,,,0.00,Wunderground v.1.13,2013-05-28 12:50:00,
2013-05-28 09:00:00,67.0,64.0,30.13,WNW,297,0.0,3.0,90,0.00,,,0.00,Wunderground v.1.13,2013-05-28 13:00:00,
2013-05-28 09:10:00,67.5,64.5,30.14,WNW,297,0.0,3.0,90,0.00,,,0.00,Wunderground v.1.13,2013-05-28 13:10:00,
2013-05-28 09:20:00,68.2,64.5,30.14,WNW,297,0.0,3.0,88,0.00,,,0.00,Wunderground v.1.13,2013-05-28 13:20:00,
2013-05-28 09:30:00,69.0,63.3,30.14,WNW,297,0.0,3.0,82,0.00,,,0.00,Wunderground v.1.13,2013-05-28 13:30:00,
2013-05-28 09:40:00,69.8,62.6,30.15,WNW,297,0.0,3.0,78,0.00,,,0.00,Wunderground v.1.13,2013-05-28 13:40:00,
2013-05-28 09:50:00,70.7,63.5,30.15,WNW,297,0.0,3.0,78,0.00,,,0.00,Wunderground v.1.13,2013-05-28 13:50:00,
2013-05-28 10:00:00,71.2,62.9,30.14,WNW,297,0.0,3.0,75,0.00,,,0.00,Wunderground v.1.13,2013-05-28 14:00:00,
2013-05-28 10:10:00,71.5,63.5,30.14,WNW,297,0.0,3.0,76,0.00,,,0.00,Wunderground v.1.13,2013-05-28 14:10:00,
2013-05-28 10:20:00,72.0,63.6,30.14,WNW,297,0.0,3.0,75,0.00,,,0.00,Wunderground v.1.13,2013-05-28 14:20:00,
2013-05-28 10:30:00,73.1,63.5,30.14,WNW,297,0.0,3.0,72,0.00,,,0.00,Wunderground v.1.13,2013-05-28 14:30:00,
2013-05-28 10:40:00,74.5,62.8,30.14,WNW,297,0.0,3.0,67,0.00,,,0.00,Wunderground v.1.13,2013-05-28 14:40:00,
2013-05-28 10:50:00,75.7,63.5,30.14,WNW,297,0.0,3.0,66,0.00,,,0.00,Wunderground v.1.13,2013-05-28 14:50:00,
2013-05-28 11:00:00,76.9,62.4,30.13,WNW,296,0.0,3.0,61,0.00,,,0.00,Wunderground v.1.13,2013-05-28 15:00:00,
2013-05-28 11:10:00,77.3,62.3,30.13,WNW,296,0.0,3.0,60,0.00,,,0.00,Wunderground v.1.13,2013-05-28 15:10:00,
2013-05-28 11:20:00,77.3,61.9,30.13,WNW,296,0.0,3.0,59,0.00,,,0.00,Wunderground v.1.13,2013-05-28 15:20:00,
2013-05-28 11:30:00,78.2,63.2,30.13,WNW,296,0.0,3.0,60,0.00,,,0.00,Wunderground v.1.13,2013-05-28 15:30:00,
2013-05-28 11:40:00,79.5,61.9,30.13,West,281,0.0,3.0,55,0.00,,,0.00,Wunderground v.1.13,2013-05-28 15:40:00,
2013-05-28 11:50:00,80.2,62.0,30.13,West,275,0.0,3.0,54,0.00,,,0.00,Wunderground v.1.13,2013-05-28 15:50:00,
2013-05-28 12:00:00,81.3,62.5,30.13,WNW,286,0.0,3.0,53,0.00,,,0.00,Wunderground v.1.13,2013-05-28 16:00:00,
2013-05-28 12:10:00,82.5,62.0,30.12,WNW,286,0.0,3.0,50,0.00,,,0.00,Wunderground v.1.13,2013-05-28 16:10:00,
2013-05-28 12:20:00,82.9,62.9,30.12,WSW,248,0.0,3.0,51,0.00,,,0.00,Wunderground v.1.13,2013-05-28 16:20:00,
2013-05-28 12:30:00,81.5,62.2,30.12,WSW,239,0.0,3.0,52,0.00,,,0.00,Wunderground v.1.13,2013-05-28 16:30:00,
2013-05-28 12:40:00,81.1,60.7,30.12,WSW,239,0.0,3.0,50,0.00,,,0.00,Wunderground v.1.13,2013-05-28 16:40:00,
2013-05-28 12:50:00,82.3,62.4,30.12,SW,229,0.0,3.0,51,0.00,,,0.00,Wunderground v.1.13,2013-05-28 16:50:00,
2013-05-28 13:00:00,83.9,60.3,30.11,SSW,199,0.0,3.0,45,0.00,,,0.00,Wunderground v.1.13,2013-05-28 17:00:00,
2013-05-28 13:10:00,83.7,58.8,30.10,SW,232,0.0,3.0,43,0.00,,,0.00,Wunderground v.1.13,2013-05-28 17:10:00,
2013-05-28 13:20:00,83.5,62.3,30.10,WSW,238,0.0,4.0,49,0.00,,,0.00,Wunderground v.1.13,2013-05-28 17:20:00,
2013-05-28 13:30:00,83.5,59.9,30.09,SW,233,0.0,3.0,45,0.00,,,0.00,Wunderground v.1.13,2013-05-28 17:30:00,
2013-05-28 13:40:00,84.4,59.5,30.09,West,265,0.0,3.0,43,0.00,,,0.00,Wunderground v.1.13,2013-05-28 17:40:00,
2013-05-28 13:50:00,83.7,61.3,30.09,WSW,237,0.0,3.0,47,0.00,,,0.00,Wunderground v.1.13,2013-05-28 17:50:00,
2013-05-28 14:00:00,84.4,61.4,30.07,WSW,237,0.0,3.0,46,0.00,,,0.00,Wunderground v.1.13,2013-05-28 18:00:00,
2013-05-28 14:10:00,85.4,60.4,30.07,WSW,237,0.0,3.0,43,0.00,,,0.00,Wunderground v.1.13,2013-05-28 18:10:00,
2013-05-28 14:20:00,84.2,59.3,30.07,WSW,237,0.0,3.0,43,0.00,,,0.00,Wunderground v.1.13,2013-05-28 18:20:00,
2013-05-28 14:30:00,84.4,61.4,30.07,WSW,237,0.0,3.0,46,0.00,,,0.00,Wunderground v.1.13,2013-05-28 18:30:00,
2013-05-28 14:40:00,83.5,62.3,30.07,SSW,200,0.0,3.0,49,0.00,,,0.00,Wunderground v.1.13,2013-05-28 18:40:00,
2013-05-28 14:50:00,83.3,63.8,30.07,SSW,200,0.0,3.0,52,0.00,,,0.00,Wunderground v.1.13,2013-05-28 18:50:00,
2013-05-28 15:00:00,83.5,65.6,30.06,ENE,66,0.0,3.0,55,0.00,,,0.00,Wunderground v.1.13,2013-05-28 19:00:00,
2013-05-28 15:10:00,84.0,64.5,30.07,ENE,65,0.0,3.0,52,0.00,,,0.00,Wunderground v.1.13,2013-05-28 19:10:00,
2013-05-28 15:20:00,84.0,65.0,30.07,ENE,65,0.0,3.0,53,0.00,,,0.00,Wunderground v.1.13,2013-05-28 19:20:00,
2013-05-28 15:30:00,84.6,63.3,30.06,South,182,0.0,3.0,49,0.00,,,0.00,Wunderground v.1.13,2013-05-28 19:30:00,
2013-05-28 15:40:00,85.6,61.2,30.06,SSW,211,0.0,3.0,44,0.00,,,0.00,Wunderground v.1.13,2013-05-28 19:40:00,
2013-05-28 15:50:00,86.2,59.0,30.06,West,267,0.0,3.0,40,0.00,,,0.00,Wunderground v.1.13,2013-05-28 19:50:00,
2013-05-28 16:00:00,86.6,63.4,30.06,WSW,246,0.0,3.0,46,0.00,,,0.00,Wunderground v.1.13,2013-05-28 20:00:00,
2013-05-28 16:10:00,87.5,61.6,30.06,WSW,246,0.0,3.0,42,0.00,,,0.00,Wunderground v.1.13,2013-05-28 20:10:00,
2013-05-28 16:20:00,88.3,63.0,30.06,North,5,0.0,3.0,43,0.00,,,0.00,Wunderground v.1.13,2013-05-28 20:20:00,
2013-05-28 16:30:00,88.1,64.1,30.06,SSW,212,0.0,3.0,45,0.00,,,0.00,Wunderground v.1.13,2013-05-28 20:30:00,
2013-05-28 16:40:00,88.3,60.9,30.05,SW,229,0.0,3.0,40,0.00,,,0.00,Wunderground v.1.13,2013-05-28 20:40:00,
2013-05-28 16:50:00,88.3,60.9,30.05,SW,216,0.0,3.0,40,0.00,,,0.00,Wunderground v.1.13,2013-05-28 20:50:00,
2013-05-28 17:00:00,88.1,60.7,30.05,SW,216,0.0,3.0,40,0.00,,,0.00,Wunderground v.1.13,2013-05-28 21:00:00,
2013-05-28 17:10:00,87.3,60.7,30.05,SW,216,0.0,3.0,41,0.00,,,0.00,Wunderground v.1.13,2013-05-28 21:10:00,
2013-05-28 17:20:00,87.5,60.2,30.05,SSW,211,0.0,3.0,40,0.00,,,0.00,Wunderground v.1.13,2013-05-28 21:20:00,
2013-05-28 17:30:00,87.7,62.4,30.04,SSW,211,0.0,3.0,43,0.00,,,0.00,Wunderground v.1.13,2013-05-28 21:30:00,
2013-05-28 17:40:00,87.3,60.7,30.04,WSW,253,0.0,3.0,41,0.00,,,0.00,Wunderground v.1.13,2013-05-28 21:40:00,
2013-05-28 17:50:00,86.9,59.7,30.04,WSW,249,0.0,3.0,40,0.00,,,0.00,Wunderground v.1.13,2013-05-28 21:50:00,
2013-05-28 18:00:00,85.6,61.8,30.03,WSW,249,0.0,3.0,45,0.00,,,0.00,Wunderground v.1.13,2013-05-28 22:00:00,
2013-05-28 18:10:00,85.0,60.6,30.03,WSW,249,0.0,3.0,44,0.00,,,0.00,Wunderground v.1.13,2013-05-28 22:10:00,
2013-05-28 18:20:00,84.4,62.6,30.03,WSW,249,0.0,3.0,48,0.00,,,0.00,Wunderground v.1.13,2013-05-28 22:20:00,
2013-05-28 18:30:00,84.4,60.1,30.03,WSW,249,0.0,3.0,44,0.00,,,0.00,Wunderground v.1.13,2013-05-28 22:30:00,
2013-05-28 18:40:00,83.9,62.7,30.03,WSW,249,0.0,3.0,49,0.00,,,0.00,Wunderground v.1.13,2013-05-28 22:40:00,
2013-05-28 18:50:00,83.7,65.3,30.03,WSW,249,0.0,3.0,54,0.00,,,0.00,Wunderground v.1.13,2013-05-28 22:50:00,
2013-05-28 19:00:00,83.5,64.6,30.03,WSW,249,0.0,3.0,53,0.00,,,0.00,Wunderground v.1.13,2013-05-28 23:00:00,
2013-05-28 19:10:00,82.9,60.0,30.03,WSW,249,0.0,3.0,46,0.00,,,0.00,Wunderground v.1.13,2013-05-28 23:10:00,
2013-05-28 19:20:00,82.5,60.8,30.03,WSW,249,0.0,3.0,48,0.00,,,0.00,Wunderground v.1.13,2013-05-28 23:20:00,
2013-05-28 19:30:00,82.1,62.2,30.03,WSW,249,0.0,3.0,51,0.00,,,0.00,Wunderground v.1.13,2013-05-28 23:30:00,
2013-05-28 19:40:00,81.5,63.8,30.03,WSW,249,0.0,0.0,55,0.00,,,0.00,Wunderground v.1.13,2013-05-28 23:40:00,
2013-05-28 19:50:00,80.8,64.1,30.03,WSW,249,0.0,0.0,57,0.00,,,0.00,Wunderground v.1.13,2013-05-28 23:50:00,
2013-05-28 20:00:00,79.7,63.6,30.03,WSW,249,0.0,0.0,58,0.00,,,0.00,Wunderground v.1.13,2013-05-29 00:00:00,
2013-05-28 20:10:00,78.7,63.2,30.03,WSW,249,0.0,2.0,59,0.00,,,0.00,Wunderground v.1.13,2013-05-29 00:10:00,
2013-05-28 20:20:00,78.0,62.5,30.03,WSW,249,0.0,2.0,59,0.00,,,0.00,Wunderground v.1.13,2013-05-29 00:20:00,
2013-05-28 20:30:00,77.3,63.3,30.03,WSW,249,0.0,2.0,62,0.00,,,0.00,Wunderground v.1.13,2013-05-29 00:30:00,
2013-05-28 20:40:00,76.6,64.0,30.03,WSW,249,0.0,2.0,65,0.00,,,0.00,Wunderground v.1.13,2013-05-29 00:40:00,
2013-05-28 20:50:00,75.9,65.0,30.03,WSW,249,0.0,2.0,69,0.00,,,0.00,Wunderground v.1.13,2013-05-29 00:50:00,
2013-05-28 21:00:00,74.8,64.8,30.03,WSW,249,0.0,2.0,71,0.00,,,0.00,Wunderground v.1.13,2013-05-29 01:00:00,
2013-05-28 21:10:00,73.9,64.7,30.03,WSW,249,0.0,2.0,73,0.00,,,0.00,Wunderground v.1.13,2013-05-29 01:10:00,
2013-05-28 21:20:00,73.2,65.2,30.03,WSW,249,0.0,2.0,76,0.00,,,0.00,Wunderground v.1.13,2013-05-29 01:20:00,
2013-05-28 21:30:00,72.9,65.3,30.04,WSW,249,0.0,2.0,77,0.00,,,0.00,Wunderground v.1.13,2013-05-29 01:30:00,
2013-05-28 21:40:00,72.6,65.0,30.04,WSW,249,0.0,2.0,77,0.00,,,0.00,Wunderground v.1.13,2013-05-29 01:40:00,
2013-05-28 21:50:00,72.2,63.8,30.04,WSW,249,0.0,2.0,75,0.00,,,0.00,Wunderground v.1.13,2013-05-29 01:50:00,
2013-05-28 22:00:00,72.0,63.3,30.04,WSW,249,0.0,2.0,74,0.00,,,0.00,Wunderground v.1.13,2013-05-29 02:00:00,
2013-05-28 22:10:00,71.9,63.2,30.05,WSW,249,0.0,2.0,74,0.00,,,0.00,Wunderground v.1.13,2013-05-29 02:10:00,
2013-05-28 22:20:00,71.7,61.8,30.05,WSW,249,0.0,2.0,71,0.00,,,0.00,Wunderground v.1.13,2013-05-29 02:20:00,
2013-05-28 22:30:00,71.5,60.4,30.05,WSW,249,0.0,2.0,68,0.00,,,0.00,Wunderground v.1.13,2013-05-29 02:30:00,
2013-05-28 22:40:00,71.7,59.3,30.05,WSW,249,0.0,2.0,65,0.00,,,0.00,Wunderground v.1.13,2013-05-29 02:40:00,
2013-05-28 22:50:00,71.9,59.9,30.05,WSW,249,0.0,2.0,66,0.00,,,0.00,Wunderground v.1.13,2013-05-29 02:50:00,
2013-05-28 23:00:00,71.5,59.5,30.06,WSW,249,0.0,2.0,66,0.00,,,0.00,Wunderground v.1.13,2013-05-29 03:00:00,
2013-05-28 23:10:00,71.2,59.7,30.06,WSW,249,0.0,2.0,67,0.00,,,0.00,Wunderground v.1.13,2013-05-29 03:10:00,
2013-05-28 23:20:00,70.8,59.3,30.06,WSW,249,0.0,2.0,67,0.00,,,0.00,Wunderground v.1.13,2013-05-29 03:20:00,
2013-05-28 23:30:00,70.3,58.8,30.06,WSW,249,0.0,2.0,67,0.00,,,0.00,Wunderground v.1.13,2013-05-29 03:30:00,
2013-05-28 23:40:00,70.0,58.5,30.06,WSW,249,0.0,2.0,67,0.00,,,0.00,Wunderground v.1.13,2013-05-29 03:40:00,
2013-05-28 23:50:00,69.8,57.9,30.06,WSW,249,0.0,2.0,66,0.00,,,0.00,Wunderground v.1.13,2013-05-29 03:50:00,